sensor_id;sensor_type;location;lat;lon;timestamp;P1;durP1;ratioP1;P2;durP2;ratioP2
70126;SDS011;57491;42.694;23.314;2023-10-08T00:00:33;9.98;;;5.38;;
70126;SDS011;57491;42.694;23.314;2023-10-08T00:03:12;8.60;;;5.38;;
70126;SDS011;57491;42.694;23.314;2023-10-08T00:05:40;9.02;;;4.78;;
70126;SDS011;57491;42.694;23.314;2023-10-08T00:08:08;15.05;;;6.05;;
70126;SDS011;57491;42.694;23.314;2023-10-08T00:13:06;8.88;;;4.90;;
70126;SDS011;57491;42.694;23.314;2023-10-08T00:15:35;10.57;;;5.40;;
70126;SDS011;57491;42.694;23.314;2023-10-08T00:20:32;10.50;;;4.85;;
70126;SDS011;57491;42.694;23.314;2023-10-08T00:23:08;10.80;;;5.68;;
70126;SDS011;57491;42.694;23.314;2023-10-08T00:25:36;11.40;;;5.15;;
70126;SDS011;57491;42.694;23.314;2023-10-08T00:28:08;14.05;;;5.07;;
70126;SDS011;57491;42.694;23.314;2023-10-08T00:30:38;12.57;;;6.95;;
70126;SDS011;57491;42.694;23.314;2023-10-08T00:33:07;12.75;;;6.47;;
70126;SDS011;57491;42.694;23.314;2023-10-08T00:35:37;11.00;;;5.88;;
70126;SDS011;57491;42.694;23.314;2023-10-08T00:38:06;12.13;;;5.70;;
70126;SDS011;57491;42.694;23.314;2023-10-08T00:40:40;9.98;;;5.25;;
70126;SDS011;57491;42.694;23.314;2023-10-08T00:43:27;8.40;;;5.18;;
70126;SDS011;57491;42.694;23.314;2023-10-08T00:45:56;15.50;;;5.82;;
70126;SDS011;57491;42.694;23.314;2023-10-08T00:48:24;11.77;;;5.00;;
70126;SDS011;57491;42.694;23.314;2023-10-08T00:50:54;8.25;;;5.57;;
70126;SDS011;57491;42.694;23.314;2023-10-08T00:53:35;9.93;;;5.00;;
70126;SDS011;57491;42.694;23.314;2023-10-08T00:56:05;8.50;;;4.75;;
70126;SDS011;57491;42.694;23.314;2023-10-08T00:58:41;9.35;;;4.65;;
70126;SDS011;57491;42.694;23.314;2023-10-08T01:01:12;8.30;;;5.20;;
70126;SDS011;57491;42.694;23.314;2023-10-08T01:03:42;7.13;;;4.80;;
70126;SDS011;57491;42.694;23.314;2023-10-08T01:06:10;8.68;;;5.45;;
70126;SDS011;57491;42.694;23.314;2023-10-08T01:08:37;8.82;;;4.95;;
70126;SDS011;57491;42.694;23.314;2023-10-08T01:11:19;10.13;;;4.65;;
70126;SDS011;57491;42.694;23.314;2023-10-08T01:13:57;10.63;;;5.18;;
70126;SDS011;57491;42.694;23.314;2023-10-08T01:16:26;12.48;;;4.72;;
70126;SDS011;57491;42.694;23.314;2023-10-08T01:18:54;7.93;;;5.05;;
70126;SDS011;57491;42.694;23.314;2023-10-08T01:21:21;9.30;;;5.18;;
70126;SDS011;57491;42.694;23.314;2023-10-08T01:24:02;12.55;;;5.15;;
70126;SDS011;57491;42.694;23.314;2023-10-08T01:26:32;10.80;;;4.57;;
70126;SDS011;57491;42.694;23.314;2023-10-08T01:31:32;8.05;;;4.88;;
70126;SDS011;57491;42.694;23.314;2023-10-08T01:33:59;9.50;;;5.10;;
70126;SDS011;57491;42.694;23.314;2023-10-08T01:36:30;9.95;;;4.40;;
70126;SDS011;57491;42.694;23.314;2023-10-08T01:41:28;10.57;;;4.78;;
70126;SDS011;57491;42.694;23.314;2023-10-08T01:43:56;10.25;;;4.50;;
70126;SDS011;57491;42.694;23.314;2023-10-08T01:46:24;12.50;;;4.45;;
70126;SDS011;57491;42.694;23.314;2023-10-08T01:48:53;11.48;;;4.78;;
70126;SDS011;57491;42.694;23.314;2023-10-08T01:51:25;8.52;;;4.28;;
70126;SDS011;57491;42.694;23.314;2023-10-08T01:54:02;7.47;;;4.03;;
70126;SDS011;57491;42.694;23.314;2023-10-08T01:56:38;8.85;;;4.40;;
70126;SDS011;57491;42.694;23.314;2023-10-08T01:59:07;8.27;;;4.25;;
70126;SDS011;57491;42.694;23.314;2023-10-08T02:01:35;7.65;;;4.07;;
70126;SDS011;57491;42.694;23.314;2023-10-08T02:04:04;9.48;;;4.32;;
70126;SDS011;57491;42.694;23.314;2023-10-08T02:06:33;8.40;;;4.47;;
70126;SDS011;57491;42.694;23.314;2023-10-08T02:09:00;7.55;;;4.32;;
70126;SDS011;57491;42.694;23.314;2023-10-08T02:11:44;9.65;;;4.40;;
70126;SDS011;57491;42.694;23.314;2023-10-08T02:14:15;5.82;;;4.25;;
70126;SDS011;57491;42.694;23.314;2023-10-08T02:16:42;9.27;;;4.38;;
70126;SDS011;57491;42.694;23.314;2023-10-08T02:21:37;7.45;;;4.38;;
70126;SDS011;57491;42.694;23.314;2023-10-08T02:24:07;7.90;;;4.18;;
70126;SDS011;57491;42.694;23.314;2023-10-08T02:26:36;8.65;;;4.70;;
70126;SDS011;57491;42.694;23.314;2023-10-08T02:29:05;10.40;;;4.88;;
70126;SDS011;57491;42.694;23.314;2023-10-08T02:31:36;9.45;;;4.88;;
70126;SDS011;57491;42.694;23.314;2023-10-08T02:34:04;9.98;;;4.18;;
70126;SDS011;57491;42.694;23.314;2023-10-08T02:36:33;9.00;;;4.88;;
70126;SDS011;57491;42.694;23.314;2023-10-08T02:39:02;9.18;;;4.88;;
70126;SDS011;57491;42.694;23.314;2023-10-08T02:41:33;7.93;;;4.07;;
70126;SDS011;57491;42.694;23.314;2023-10-08T02:44:01;6.28;;;4.50;;
70126;SDS011;57491;42.694;23.314;2023-10-08T02:46:32;8.35;;;4.75;;
70126;SDS011;57491;42.694;23.314;2023-10-08T02:49:02;10.07;;;4.80;;
70126;SDS011;57491;42.694;23.314;2023-10-08T02:51:32;9.40;;;4.28;;
70126;SDS011;57491;42.694;23.314;2023-10-08T02:53:59;9.70;;;4.35;;
70126;SDS011;57491;42.694;23.314;2023-10-08T02:56:26;7.40;;;4.27;;
70126;SDS011;57491;42.694;23.314;2023-10-08T02:58:57;8.93;;;5.05;;
70126;SDS011;57491;42.694;23.314;2023-10-08T03:01:25;7.72;;;4.88;;
70126;SDS011;57491;42.694;23.314;2023-10-08T03:03:54;10.57;;;4.83;;
70126;SDS011;57491;42.694;23.314;2023-10-08T03:06:29;6.82;;;4.47;;
70126;SDS011;57491;42.694;23.314;2023-10-08T03:08:57;7.93;;;4.47;;
70126;SDS011;57491;42.694;23.314;2023-10-08T03:11:29;10.52;;;5.30;;
70126;SDS011;57491;42.694;23.314;2023-10-08T03:13:57;9.17;;;4.93;;
70126;SDS011;57491;42.694;23.314;2023-10-08T03:16:25;11.27;;;5.13;;
70126;SDS011;57491;42.694;23.314;2023-10-08T03:19:01;7.50;;;4.53;;
70126;SDS011;57491;42.694;23.314;2023-10-08T03:21:31;7.78;;;4.60;;
70126;SDS011;57491;42.694;23.314;2023-10-08T03:24:21;11.07;;;5.32;;
70126;SDS011;57491;42.694;23.314;2023-10-08T03:27:04;10.07;;;4.90;;
70126;SDS011;57491;42.694;23.314;2023-10-08T03:29:45;8.82;;;4.78;;
70126;SDS011;57491;42.694;23.314;2023-10-08T03:32:13;8.45;;;4.38;;
70126;SDS011;57491;42.694;23.314;2023-10-08T03:34:47;7.85;;;4.28;;
70126;SDS011;57491;42.694;23.314;2023-10-08T03:37:15;10.10;;;4.65;;
70126;SDS011;57491;42.694;23.314;2023-10-08T03:39:46;6.85;;;4.18;;
70126;SDS011;57491;42.694;23.314;2023-10-08T03:42:47;9.77;;;4.60;;
70126;SDS011;57491;42.694;23.314;2023-10-08T03:45:14;9.52;;;4.57;;
70126;SDS011;57491;42.694;23.314;2023-10-08T03:47:48;10.90;;;4.78;;
70126;SDS011;57491;42.694;23.314;2023-10-08T03:50:30;11.13;;;5.22;;
70126;SDS011;57491;42.694;23.314;2023-10-08T03:53:06;9.13;;;4.40;;
70126;SDS011;57491;42.694;23.314;2023-10-08T03:55:37;10.15;;;4.93;;
70126;SDS011;57491;42.694;23.314;2023-10-08T03:58:06;9.43;;;4.65;;
70126;SDS011;57491;42.694;23.314;2023-10-08T04:00:38;7.40;;;4.78;;
70126;SDS011;57491;42.694;23.314;2023-10-08T04:03:08;9.57;;;4.70;;
70126;SDS011;57491;42.694;23.314;2023-10-08T04:05:38;8.07;;;4.47;;
70126;SDS011;57491;42.694;23.314;2023-10-08T04:08:31;8.25;;;4.60;;
70126;SDS011;57491;42.694;23.314;2023-10-08T04:11:09;7.97;;;4.43;;
70126;SDS011;57491;42.694;23.314;2023-10-08T04:13:48;8.57;;;4.50;;
70126;SDS011;57491;42.694;23.314;2023-10-08T04:16:16;8.63;;;5.22;;
70126;SDS011;57491;42.694;23.314;2023-10-08T04:18:45;16.15;;;5.40;;
70126;SDS011;57491;42.694;23.314;2023-10-08T04:21:18;7.57;;;4.80;;
70126;SDS011;57491;42.694;23.314;2023-10-08T04:23:46;13.13;;;5.60;;
70126;SDS011;57491;42.694;23.314;2023-10-08T04:26:17;11.75;;;5.22;;
70126;SDS011;57491;42.694;23.314;2023-10-08T04:28:49;11.18;;;5.55;;
70126;SDS011;57491;42.694;23.314;2023-10-08T04:31:20;12.65;;;5.75;;
70126;SDS011;57491;42.694;23.314;2023-10-08T04:33:50;13.52;;;6.15;;
70126;SDS011;57491;42.694;23.314;2023-10-08T04:36:20;13.68;;;6.70;;
70126;SDS011;57491;42.694;23.314;2023-10-08T04:38:47;14.85;;;6.90;;
70126;SDS011;57491;42.694;23.314;2023-10-08T04:41:19;10.57;;;6.45;;
70126;SDS011;57491;42.694;23.314;2023-10-08T04:43:53;14.05;;;7.63;;
70126;SDS011;57491;42.694;23.314;2023-10-08T04:46:21;11.23;;;6.10;;
70126;SDS011;57491;42.694;23.314;2023-10-08T04:49:12;10.00;;;6.55;;
70126;SDS011;57491;42.694;23.314;2023-10-08T04:51:54;12.43;;;6.03;;
70126;SDS011;57491;42.694;23.314;2023-10-08T04:54:24;10.55;;;5.28;;
70126;SDS011;57491;42.694;23.314;2023-10-08T04:56:56;13.55;;;6.50;;
70126;SDS011;57491;42.694;23.314;2023-10-08T04:59:26;11.55;;;6.32;;
70126;SDS011;57491;42.694;23.314;2023-10-08T05:01:59;15.02;;;5.93;;
70126;SDS011;57491;42.694;23.314;2023-10-08T05:04:45;10.00;;;6.43;;
70126;SDS011;57491;42.694;23.314;2023-10-08T05:10:18;12.77;;;5.32;;
70126;SDS011;57491;42.694;23.314;2023-10-08T05:13:10;11.05;;;5.50;;
70126;SDS011;57491;42.694;23.314;2023-10-08T05:15:42;9.73;;;5.07;;
70126;SDS011;57491;42.694;23.314;2023-10-08T05:18:28;12.65;;;6.03;;
70126;SDS011;57491;42.694;23.314;2023-10-08T05:21:20;16.63;;;5.95;;
70126;SDS011;57491;42.694;23.314;2023-10-08T05:23:55;10.07;;;5.28;;
70126;SDS011;57491;42.694;23.314;2023-10-08T05:26:39;9.68;;;5.45;;
70126;SDS011;57491;42.694;23.314;2023-10-08T05:29:14;11.48;;;5.60;;
70126;SDS011;57491;42.694;23.314;2023-10-08T05:31:59;13.43;;;6.60;;
70126;SDS011;57491;42.694;23.314;2023-10-08T05:34:40;13.70;;;5.97;;
70126;SDS011;57491;42.694;23.314;2023-10-08T05:37:21;12.13;;;6.43;;
70126;SDS011;57491;42.694;23.314;2023-10-08T05:40:02;9.60;;;5.65;;
70126;SDS011;57491;42.694;23.314;2023-10-08T05:42:46;18.02;;;7.15;;
70126;SDS011;57491;42.694;23.314;2023-10-08T05:45:15;10.00;;;5.53;;
70126;SDS011;57491;42.694;23.314;2023-10-08T05:47:55;9.77;;;4.85;;
70126;SDS011;57491;42.694;23.314;2023-10-08T05:50:39;9.90;;;5.50;;
70126;SDS011;57491;42.694;23.314;2023-10-08T05:53:08;8.93;;;5.63;;
70126;SDS011;57491;42.694;23.314;2023-10-08T05:56:01;8.88;;;5.38;;
70126;SDS011;57491;42.694;23.314;2023-10-08T05:58:42;12.75;;;4.88;;
70126;SDS011;57491;42.694;23.314;2023-10-08T06:01:25;10.55;;;5.15;;
70126;SDS011;57491;42.694;23.314;2023-10-08T06:04:05;8.35;;;5.15;;
70126;SDS011;57491;42.694;23.314;2023-10-08T06:06:46;11.38;;;6.80;;
70126;SDS011;57491;42.694;23.314;2023-10-08T06:09:23;24.00;;;11.80;;
70126;SDS011;57491;42.694;23.314;2023-10-08T06:12:02;16.42;;;6.60;;
70126;SDS011;57491;42.694;23.314;2023-10-08T06:14:45;11.43;;;6.80;;
70126;SDS011;57491;42.694;23.314;2023-10-08T06:17:30;10.77;;;6.45;;
70126;SDS011;57491;42.694;23.314;2023-10-08T06:20:15;12.35;;;5.90;;
70126;SDS011;57491;42.694;23.314;2023-10-08T06:22:43;10.43;;;6.30;;
70126;SDS011;57491;42.694;23.314;2023-10-08T06:25:09;13.40;;;6.43;;
70126;SDS011;57491;42.694;23.314;2023-10-08T06:27:45;15.70;;;6.60;;
70126;SDS011;57491;42.694;23.314;2023-10-08T06:30:12;14.32;;;6.53;;
70126;SDS011;57491;42.694;23.314;2023-10-08T06:32:42;10.80;;;6.35;;
70126;SDS011;57491;42.694;23.314;2023-10-08T06:35:11;12.60;;;5.80;;
70126;SDS011;57491;42.694;23.314;2023-10-08T06:37:43;16.13;;;7.05;;
70126;SDS011;57491;42.694;23.314;2023-10-08T06:40:11;10.52;;;6.10;;
70126;SDS011;57491;42.694;23.314;2023-10-08T06:43:07;10.68;;;5.90;;
70126;SDS011;57491;42.694;23.314;2023-10-08T06:45:42;13.30;;;6.47;;
70126;SDS011;57491;42.694;23.314;2023-10-08T06:48:12;10.45;;;5.95;;
70126;SDS011;57491;42.694;23.314;2023-10-08T06:50:46;13.30;;;6.60;;
70126;SDS011;57491;42.694;23.314;2023-10-08T06:53:14;18.27;;;8.60;;
70126;SDS011;57491;42.694;23.314;2023-10-08T06:55:43;12.52;;;6.57;;
70126;SDS011;57491;42.694;23.314;2023-10-08T06:58:15;16.73;;;7.07;;
70126;SDS011;57491;42.694;23.314;2023-10-08T07:00:44;11.15;;;6.53;;
70126;SDS011;57491;42.694;23.314;2023-10-08T07:03:21;12.18;;;6.47;;
70126;SDS011;57491;42.694;23.314;2023-10-08T07:05:51;14.10;;;6.97;;
70126;SDS011;57491;42.694;23.314;2023-10-08T07:08:24;9.80;;;7.05;;
70126;SDS011;57491;42.694;23.314;2023-10-08T07:10:52;15.40;;;7.38;;
70126;SDS011;57491;42.694;23.314;2023-10-08T07:13:23;14.80;;;7.35;;
70126;SDS011;57491;42.694;23.314;2023-10-08T07:15:52;14.00;;;7.30;;
70126;SDS011;57491;42.694;23.314;2023-10-08T07:20:50;14.45;;;7.43;;
70126;SDS011;57491;42.694;23.314;2023-10-08T07:23:20;15.40;;;8.38;;
70126;SDS011;57491;42.694;23.314;2023-10-08T07:25:52;12.27;;;7.45;;
70126;SDS011;57491;42.694;23.314;2023-10-08T07:28:25;14.15;;;7.10;;
70126;SDS011;57491;42.694;23.314;2023-10-08T07:30:52;15.57;;;8.40;;
70126;SDS011;57491;42.694;23.314;2023-10-08T07:35:50;16.92;;;7.57;;
70126;SDS011;57491;42.694;23.314;2023-10-08T07:38:25;14.32;;;6.07;;
70126;SDS011;57491;42.694;23.314;2023-10-08T07:40:55;13.82;;;6.00;;
70126;SDS011;57491;42.694;23.314;2023-10-08T07:43:23;14.93;;;6.13;;
70126;SDS011;57491;42.694;23.314;2023-10-08T07:45:51;13.68;;;7.13;;
70126;SDS011;57491;42.694;23.314;2023-10-08T07:48:20;17.83;;;7.53;;
70126;SDS011;57491;42.694;23.314;2023-10-08T07:50:50;13.18;;;6.63;;
70126;SDS011;57491;42.694;23.314;2023-10-08T07:53:17;12.48;;;7.03;;
70126;SDS011;57491;42.694;23.314;2023-10-08T07:55:45;12.52;;;6.43;;
70126;SDS011;57491;42.694;23.314;2023-10-08T07:58:14;13.85;;;6.97;;
70126;SDS011;57491;42.694;23.314;2023-10-08T08:00:42;11.73;;;6.22;;
70126;SDS011;57491;42.694;23.314;2023-10-08T08:03:20;14.65;;;8.07;;
70126;SDS011;57491;42.694;23.314;2023-10-08T08:05:47;12.93;;;6.25;;
70126;SDS011;57491;42.694;23.314;2023-10-08T08:08:21;14.23;;;7.63;;
70126;SDS011;57491;42.694;23.314;2023-10-08T08:10:52;14.68;;;6.30;;
70126;SDS011;57491;42.694;23.314;2023-10-08T08:13:24;13.95;;;6.97;;
70126;SDS011;57491;42.694;23.314;2023-10-08T08:15:56;11.95;;;5.85;;
70126;SDS011;57491;42.694;23.314;2023-10-08T08:18:37;14.73;;;6.05;;
70126;SDS011;57491;42.694;23.314;2023-10-08T08:21:08;11.32;;;5.55;;
70126;SDS011;57491;42.694;23.314;2023-10-08T08:23:40;9.02;;;4.38;;
70126;SDS011;57491;42.694;23.314;2023-10-08T08:26:13;8.25;;;4.32;;
70126;SDS011;57491;42.694;23.314;2023-10-08T08:28:53;5.95;;;3.90;;
70126;SDS011;57491;42.694;23.314;2023-10-08T08:31:22;7.55;;;3.97;;
70126;SDS011;57491;42.694;23.314;2023-10-08T08:33:52;7.35;;;4.10;;
70126;SDS011;57491;42.694;23.314;2023-10-08T08:36:22;6.55;;;4.13;;
70126;SDS011;57491;42.694;23.314;2023-10-08T08:38:50;6.57;;;3.97;;
70126;SDS011;57491;42.694;23.314;2023-10-08T08:41:18;6.65;;;3.70;;
70126;SDS011;57491;42.694;23.314;2023-10-08T08:43:47;9.15;;;4.47;;
70126;SDS011;57491;42.694;23.314;2023-10-08T08:46:25;7.30;;;4.13;;
70126;SDS011;57491;42.694;23.314;2023-10-08T08:49:00;6.57;;;3.90;;
70126;SDS011;57491;42.694;23.314;2023-10-08T08:51:29;7.50;;;4.28;;
70126;SDS011;57491;42.694;23.314;2023-10-08T08:53:57;7.28;;;4.18;;
70126;SDS011;57491;42.694;23.314;2023-10-08T08:56:25;7.85;;;4.88;;
70126;SDS011;57491;42.694;23.314;2023-10-08T08:58:55;6.38;;;4.15;;
70126;SDS011;57491;42.694;23.314;2023-10-08T09:01:26;8.85;;;3.97;;
70126;SDS011;57491;42.694;23.314;2023-10-08T09:03:59;8.15;;;4.47;;
70126;SDS011;57491;42.694;23.314;2023-10-08T09:06:30;8.57;;;3.90;;
70126;SDS011;57491;42.694;23.314;2023-10-08T09:08:59;7.75;;;4.38;;
70126;SDS011;57491;42.694;23.314;2023-10-08T09:11:39;7.78;;;4.63;;
70126;SDS011;57491;42.694;23.314;2023-10-08T09:14:08;7.63;;;4.85;;
70126;SDS011;57491;42.694;23.314;2023-10-08T09:16:37;9.57;;;4.20;;
70126;SDS011;57491;42.694;23.314;2023-10-08T09:19:05;7.78;;;4.28;;
70126;SDS011;57491;42.694;23.314;2023-10-08T09:21:37;5.40;;;3.90;;
70126;SDS011;57491;42.694;23.314;2023-10-08T09:24:04;7.13;;;4.30;;
70126;SDS011;57491;42.694;23.314;2023-10-08T09:26:36;8.13;;;4.03;;
70126;SDS011;57491;42.694;23.314;2023-10-08T09:29:05;6.32;;;4.20;;
70126;SDS011;57491;42.694;23.314;2023-10-08T09:31:37;9.63;;;4.63;;
70126;SDS011;57491;42.694;23.314;2023-10-08T09:34:06;7.72;;;4.13;;
70126;SDS011;57491;42.694;23.314;2023-10-08T09:36:33;10.50;;;4.72;;
70126;SDS011;57491;42.694;23.314;2023-10-08T09:39:00;10.82;;;4.45;;
70126;SDS011;57491;42.694;23.314;2023-10-08T09:41:30;9.68;;;4.22;;
70126;SDS011;57491;42.694;23.314;2023-10-08T09:43:59;7.05;;;4.28;;
70126;SDS011;57491;42.694;23.314;2023-10-08T09:46:29;8.20;;;4.13;;
70126;SDS011;57491;42.694;23.314;2023-10-08T09:48:59;6.40;;;3.88;;
70126;SDS011;57491;42.694;23.314;2023-10-08T09:51:35;7.90;;;4.00;;
70126;SDS011;57491;42.694;23.314;2023-10-08T09:54:09;6.88;;;3.80;;
70126;SDS011;57491;42.694;23.314;2023-10-08T09:56:39;8.60;;;4.57;;
70126;SDS011;57491;42.694;23.314;2023-10-08T09:59:08;7.30;;;3.97;;
70126;SDS011;57491;42.694;23.314;2023-10-08T10:01:36;8.40;;;4.57;;
70126;SDS011;57491;42.694;23.314;2023-10-08T10:04:05;11.23;;;4.50;;
70126;SDS011;57491;42.694;23.314;2023-10-08T10:06:37;6.35;;;3.58;;
70126;SDS011;57491;42.694;23.314;2023-10-08T10:09:05;9.27;;;4.18;;
70126;SDS011;57491;42.694;23.314;2023-10-08T10:11:34;6.65;;;4.65;;
70126;SDS011;57491;42.694;23.314;2023-10-08T10:14:02;13.90;;;4.75;;
70126;SDS011;57491;42.694;23.314;2023-10-08T10:16:32;6.95;;;4.55;;
70126;SDS011;57491;42.694;23.314;2023-10-08T10:19:04;10.30;;;4.03;;
70126;SDS011;57491;42.694;23.314;2023-10-08T10:21:32;12.25;;;3.92;;
70126;SDS011;57491;42.694;23.314;2023-10-08T10:24:01;8.00;;;4.00;;
70126;SDS011;57491;42.694;23.314;2023-10-08T10:26:32;12.57;;;4.22;;
70126;SDS011;57491;42.694;23.314;2023-10-08T10:31:52;9.60;;;4.30;;
70126;SDS011;57491;42.694;23.314;2023-10-08T10:34:22;8.18;;;3.60;;
70126;SDS011;57491;42.694;23.314;2023-10-08T10:36:53;6.65;;;3.67;;
70126;SDS011;57491;42.694;23.314;2023-10-08T10:39:29;13.45;;;3.63;;
70126;SDS011;57491;42.694;23.314;2023-10-08T10:42:00;8.73;;;3.22;;
70126;SDS011;57491;42.694;23.314;2023-10-08T10:44:31;8.85;;;3.92;;
70126;SDS011;57491;42.694;23.314;2023-10-08T10:47:02;7.82;;;4.20;;
70126;SDS011;57491;42.694;23.314;2023-10-08T10:49:55;7.45;;;3.90;;
70126;SDS011;57491;42.694;23.314;2023-10-08T10:52:36;11.10;;;4.07;;
70126;SDS011;57491;42.694;23.314;2023-10-08T10:55:19;7.97;;;4.30;;
70126;SDS011;57491;42.694;23.314;2023-10-08T10:57:57;8.23;;;5.07;;
70126;SDS011;57491;42.694;23.314;2023-10-08T11:00:36;9.63;;;4.45;;
70126;SDS011;57491;42.694;23.314;2023-10-08T11:03:15;6.93;;;4.15;;
70126;SDS011;57491;42.694;23.314;2023-10-08T11:05:50;8.05;;;4.15;;
70126;SDS011;57491;42.694;23.314;2023-10-08T11:08:20;5.07;;;4.25;;
70126;SDS011;57491;42.694;23.314;2023-10-08T11:10:51;13.05;;;4.28;;
70126;SDS011;57491;42.694;23.314;2023-10-08T11:13:24;8.00;;;4.20;;
70126;SDS011;57491;42.694;23.314;2023-10-08T11:15:54;6.78;;;4.10;;
70126;SDS011;57491;42.694;23.314;2023-10-08T11:18:24;6.15;;;4.53;;
70126;SDS011;57491;42.694;23.314;2023-10-08T11:21:04;7.57;;;4.07;;
70126;SDS011;57491;42.694;23.314;2023-10-08T11:23:41;6.22;;;3.97;;
70126;SDS011;57491;42.694;23.314;2023-10-08T11:26:13;7.60;;;4.03;;
70126;SDS011;57491;42.694;23.314;2023-10-08T11:28:41;6.57;;;3.97;;
70126;SDS011;57491;42.694;23.314;2023-10-08T11:31:10;8.05;;;3.55;;
70126;SDS011;57491;42.694;23.314;2023-10-08T11:33:39;8.52;;;3.72;;
70126;SDS011;57491;42.694;23.314;2023-10-08T11:36:07;9.57;;;3.60;;
70126;SDS011;57491;42.694;23.314;2023-10-08T11:41:15;8.52;;;4.10;;
70126;SDS011;57491;42.694;23.314;2023-10-08T11:43:53;9.88;;;4.05;;
70126;SDS011;57491;42.694;23.314;2023-10-08T11:46:23;10.23;;;4.07;;
70126;SDS011;57491;42.694;23.314;2023-10-08T11:48:53;6.40;;;3.80;;
70126;SDS011;57491;42.694;23.314;2023-10-08T11:51:24;10.48;;;3.42;;
70126;SDS011;57491;42.694;23.314;2023-10-08T11:53:51;7.63;;;3.90;;
70126;SDS011;57491;42.694;23.314;2023-10-08T11:56:20;8.60;;;3.65;;
70126;SDS011;57491;42.694;23.314;2023-10-08T11:58:49;9.27;;;3.53;;
70126;SDS011;57491;42.694;23.314;2023-10-08T12:01:17;9.68;;;3.75;;
70126;SDS011;57491;42.694;23.314;2023-10-08T12:06:11;10.63;;;3.88;;
70126;SDS011;57491;42.694;23.314;2023-10-08T12:08:41;7.55;;;3.15;;
70126;SDS011;57491;42.694;23.314;2023-10-08T12:11:10;8.30;;;3.53;;
70126;SDS011;57491;42.694;23.314;2023-10-08T12:13:42;11.40;;;4.32;;
70126;SDS011;57491;42.694;23.314;2023-10-08T12:16:13;11.30;;;3.72;;
70126;SDS011;57491;42.694;23.314;2023-10-08T12:18:51;15.60;;;4.10;;
70126;SDS011;57491;42.694;23.314;2023-10-08T12:21:24;12.98;;;4.00;;
70126;SDS011;57491;42.694;23.314;2023-10-08T12:26:20;8.95;;;3.53;;
70126;SDS011;57491;42.694;23.314;2023-10-08T12:28:49;9.40;;;3.63;;
70126;SDS011;57491;42.694;23.314;2023-10-08T12:31:16;10.38;;;3.45;;
70126;SDS011;57491;42.694;23.314;2023-10-08T12:33:47;12.80;;;4.57;;
70126;SDS011;57491;42.694;23.314;2023-10-08T12:36:19;7.25;;;3.47;;
70126;SDS011;57491;42.694;23.314;2023-10-08T12:38:48;5.70;;;3.30;;
70126;SDS011;57491;42.694;23.314;2023-10-08T12:41:23;9.95;;;3.65;;
70126;SDS011;57491;42.694;23.314;2023-10-08T12:43:53;8.05;;;3.75;;
70126;SDS011;57491;42.694;23.314;2023-10-08T12:46:21;10.32;;;3.90;;
70126;SDS011;57491;42.694;23.314;2023-10-08T12:48:51;11.32;;;4.00;;
70126;SDS011;57491;42.694;23.314;2023-10-08T12:51:19;13.98;;;4.38;;
70126;SDS011;57491;42.694;23.314;2023-10-08T12:53:49;9.20;;;3.78;;
70126;SDS011;57491;42.694;23.314;2023-10-08T12:56:24;10.30;;;4.10;;
70126;SDS011;57491;42.694;23.314;2023-10-08T12:58:58;12.90;;;3.33;;
70126;SDS011;57491;42.694;23.314;2023-10-08T13:01:29;11.13;;;4.13;;
70126;SDS011;57491;42.694;23.314;2023-10-08T13:03:57;8.05;;;4.03;;
70126;SDS011;57491;42.694;23.314;2023-10-08T13:06:26;10.70;;;3.80;;
70126;SDS011;57491;42.694;23.314;2023-10-08T13:08:55;11.73;;;4.65;;
70126;SDS011;57491;42.694;23.314;2023-10-08T13:11:23;15.13;;;4.40;;
70126;SDS011;57491;42.694;23.314;2023-10-08T13:13:51;13.40;;;3.70;;
70126;SDS011;57491;42.694;23.314;2023-10-08T13:16:24;13.00;;;4.20;;
70126;SDS011;57491;42.694;23.314;2023-10-08T13:18:51;14.20;;;4.32;;
70126;SDS011;57491;42.694;23.314;2023-10-08T13:21:22;12.77;;;3.38;;
70126;SDS011;57491;42.694;23.314;2023-10-08T13:23:50;10.95;;;3.58;;
70126;SDS011;57491;42.694;23.314;2023-10-08T13:26:17;10.85;;;3.58;;
70126;SDS011;57491;42.694;23.314;2023-10-08T13:28:48;8.63;;;3.33;;
70126;SDS011;57491;42.694;23.314;2023-10-08T13:31:15;10.68;;;3.80;;
70126;SDS011;57491;42.694;23.314;2023-10-08T13:33:46;11.45;;;3.08;;
70126;SDS011;57491;42.694;23.314;2023-10-08T13:36:17;11.40;;;3.20;;
70126;SDS011;57491;42.694;23.314;2023-10-08T13:38:45;9.82;;;4.10;;
70126;SDS011;57491;42.694;23.314;2023-10-08T13:41:12;11.05;;;3.35;;
70126;SDS011;57491;42.694;23.314;2023-10-08T13:43:45;8.55;;;3.13;;
70126;SDS011;57491;42.694;23.314;2023-10-08T13:46:14;9.60;;;3.22;;
70126;SDS011;57491;42.694;23.314;2023-10-08T13:48:43;10.07;;;3.40;;
70126;SDS011;57491;42.694;23.314;2023-10-08T13:51:13;10.05;;;3.22;;
70126;SDS011;57491;42.694;23.314;2023-10-08T13:53:48;13.60;;;3.75;;
70126;SDS011;57491;42.694;23.314;2023-10-08T13:56:17;7.25;;;3.40;;
70126;SDS011;57491;42.694;23.314;2023-10-08T13:58:46;13.93;;;3.65;;
70126;SDS011;57491;42.694;23.314;2023-10-08T14:01:15;13.73;;;3.85;;
70126;SDS011;57491;42.694;23.314;2023-10-08T14:03:46;10.68;;;3.45;;
70126;SDS011;57491;42.694;23.314;2023-10-08T14:06:16;9.35;;;3.60;;
70126;SDS011;57491;42.694;23.314;2023-10-08T14:08:43;8.13;;;3.47;;
70126;SDS011;57491;42.694;23.314;2023-10-08T14:11:17;9.82;;;3.33;;
70126;SDS011;57491;42.694;23.314;2023-10-08T14:13:49;11.40;;;3.00;;
70126;SDS011;57491;42.694;23.314;2023-10-08T14:16:17;7.60;;;2.58;;
70126;SDS011;57491;42.694;23.314;2023-10-08T14:18:48;12.32;;;3.88;;
70126;SDS011;57491;42.694;23.314;2023-10-08T14:21:21;12.55;;;3.42;;
70126;SDS011;57491;42.694;23.314;2023-10-08T14:23:50;13.73;;;3.35;;
70126;SDS011;57491;42.694;23.314;2023-10-08T14:26:18;9.57;;;2.83;;
70126;SDS011;57491;42.694;23.314;2023-10-08T14:28:48;15.80;;;4.28;;
70126;SDS011;57491;42.694;23.314;2023-10-08T14:31:19;15.57;;;3.28;;
70126;SDS011;57491;42.694;23.314;2023-10-08T14:33:48;21.45;;;3.40;;
70126;SDS011;57491;42.694;23.314;2023-10-08T14:39:31;11.05;;;2.70;;
70126;SDS011;57491;42.694;23.314;2023-10-08T14:42:16;15.45;;;3.85;;
70126;SDS011;57491;42.694;23.314;2023-10-08T14:45:02;13.05;;;3.35;;
70126;SDS011;57491;42.694;23.314;2023-10-08T14:47:31;16.45;;;3.33;;
70126;SDS011;57491;42.694;23.314;2023-10-08T14:49:58;15.63;;;3.38;;
70126;SDS011;57491;42.694;23.314;2023-10-08T14:52:27;19.58;;;3.88;;
70126;SDS011;57491;42.694;23.314;2023-10-08T14:54:55;10.30;;;4.00;;
70126;SDS011;57491;42.694;23.314;2023-10-08T14:57:22;14.05;;;3.47;;
70126;SDS011;57491;42.694;23.314;2023-10-08T14:59:52;23.88;;;3.83;;
70126;SDS011;57491;42.694;23.314;2023-10-08T15:02:19;13.63;;;3.78;;
70126;SDS011;57491;42.694;23.314;2023-10-08T15:04:47;19.20;;;4.43;;
70126;SDS011;57491;42.694;23.314;2023-10-08T15:07:14;11.98;;;4.32;;
70126;SDS011;57491;42.694;23.314;2023-10-08T15:09:45;10.23;;;3.00;;
70126;SDS011;57491;42.694;23.314;2023-10-08T15:12:15;13.45;;;3.38;;
70126;SDS011;57491;42.694;23.314;2023-10-08T15:14:43;13.05;;;3.63;;
70126;SDS011;57491;42.694;23.314;2023-10-08T15:17:10;14.52;;;3.42;;
70126;SDS011;57491;42.694;23.314;2023-10-08T15:19:38;10.50;;;3.50;;
70126;SDS011;57491;42.694;23.314;2023-10-08T15:22:05;11.52;;;3.35;;
70126;SDS011;57491;42.694;23.314;2023-10-08T15:24:32;12.73;;;2.95;;
70126;SDS011;57491;42.694;23.314;2023-10-08T15:27:03;10.85;;;3.22;;
70126;SDS011;57491;42.694;23.314;2023-10-08T15:29:31;13.13;;;2.90;;